sensor_id;sensor_type;location;lat;lon;timestamp;P1;durP1;ratioP1;P2;durP2;ratioP2
51194;SDS011;37259;49.972;19.850;2023-10-13T00:00:56;8.3;;;5;;
51194;SDS011;37259;49.972;19.850;2023-10-13T00:01:56;8.3;;;5;;
51194;SDS011;37259;49.972;19.850;2023-10-13T00:02:57;8.3;;;5;;
51194;SDS011;37259;49.972;19.850;2023-10-13T00:03:56;8.3;;;5;;
51194;SDS011;37259;49.972;19.850;2023-10-13T00:04:56;8.3;;;5;;
51194;SDS011;37259;49.972;19.850;2023-10-13T00:05:57;8.3;;;5;;
51194;SDS011;37259;49.972;19.850;2023-10-13T00:06:56;8.3;;;5;;
51194;SDS011;37259;49.972;19.850;2023-10-13T00:07:56;8.3;;;5;;
51194;SDS011;37259;49.972;19.850;2023-10-13T00:08:56;8.3;;;5;;
51194;SDS011;37259;49.972;19.850;2023-10-13T00:09:56;8.3;;;5;;
51194;SDS011;37259;49.972;19.850;2023-10-13T00:10:56;11;;;5.8;;
51194;SDS011;37259;49.972;19.850;2023-10-13T00:11:56;11;;;5.8;;
51194;SDS011;37259;49.972;19.850;2023-10-13T00:12:56;11;;;5.8;;
51194;SDS011;37259;49.972;19.850;2023-10-13T00:13:56;11;;;5.8;;
51194;SDS011;37259;49.972;19.850;2023-10-13T00:14:56;11;;;5.8;;
51194;SDS011;37259;49.972;19.850;2023-10-13T00:15:56;11;;;5.8;;
51194;SDS011;37259;49.972;19.850;2023-10-13T00:16:56;11;;;5.8;;
51194;SDS011;37259;49.972;19.850;2023-10-13T00:17:56;11;;;5.8;;
51194;SDS011;37259;49.972;19.850;2023-10-13T00:18:56;11;;;5.8;;
51194;SDS011;37259;49.972;19.850;2023-10-13T00:19:56;11;;;5.8;;
51194;SDS011;37259;49.972;19.850;2023-10-13T00:20:56;11;;;5.8;;
51194;SDS011;37259;49.972;19.850;2023-10-13T00:21:56;11;;;5.8;;
51194;SDS011;37259;49.972;19.850;2023-10-13T00:22:56;11;;;5.8;;
51194;SDS011;37259;49.972;19.850;2023-10-13T00:23:56;11;;;5.8;;
51194;SDS011;37259;49.972;19.850;2023-10-13T00:24:56;11;;;5.8;;
51194;SDS011;37259;49.972;19.850;2023-10-13T00:25:56;11;;;5.8;;
51194;SDS011;37259;49.972;19.850;2023-10-13T00:26:56;11;;;5.8;;
51194;SDS011;37259;49.972;19.850;2023-10-13T00:27:56;11;;;5.8;;
51194;SDS011;37259;49.972;19.850;2023-10-13T00:28:56;11;;;5.8;;
51194;SDS011;37259;49.972;19.850;2023-10-13T00:29:56;11;;;5.8;;
51194;SDS011;37259;49.972;19.850;2023-10-13T00:30:56;11;;;5.8;;
51194;SDS011;37259;49.972;19.850;2023-10-13T00:31:56;11;;;5.8;;
51194;SDS011;37259;49.972;19.850;2023-10-13T00:32:57;11;;;5.8;;
51194;SDS011;37259;49.972;19.850;2023-10-13T00:33:56;11;;;5.8;;
51194;SDS011;37259;49.972;19.850;2023-10-13T00:34:56;11;;;5.8;;
51194;SDS011;37259;49.972;19.850;2023-10-13T00:35:56;11;;;5.8;;
51194;SDS011;37259;49.972;19.850;2023-10-13T00:36:56;11;;;5.8;;
51194;SDS011;37259;49.972;19.850;2023-10-13T00:37:56;11;;;5.8;;
51194;SDS011;37259;49.972;19.850;2023-10-13T00:38:56;11;;;5.8;;
51194;SDS011;37259;49.972;19.850;2023-10-13T00:39:56;11;;;5.8;;
51194;SDS011;37259;49.972;19.850;2023-10-13T00:40:56;9.1;;;5.3;;
51194;SDS011;37259;49.972;19.850;2023-10-13T00:41:56;9.1;;;5.3;;
51194;SDS011;37259;49.972;19.850;2023-10-13T00:42:56;9.1;;;5.3;;
51194;SDS011;37259;49.972;19.850;2023-10-13T00:43:56;9.1;;;5.3;;
51194;SDS011;37259;49.972;19.850;2023-10-13T00:44:56;9.1;;;5.3;;
51194;SDS011;37259;49.972;19.850;2023-10-13T00:45:57;9.1;;;5.3;;
51194;SDS011;37259;49.972;19.850;2023-10-13T00:46:56;9.1;;;5.3;;
51194;SDS011;37259;49.972;19.850;2023-10-13T00:47:56;9.1;;;5.3;;
51194;SDS011;37259;49.972;19.850;2023-10-13T00:48:56;9.1;;;5.3;;
51194;SDS011;37259;49.972;19.850;2023-10-13T00:49:56;9.1;;;5.3;;
51194;SDS011;37259;49.972;19.850;2023-10-13T00:50:57;9.1;;;5.3;;
51194;SDS011;37259;49.972;19.850;2023-10-13T00:51:56;9.1;;;5.3;;
51194;SDS011;37259;49.972;19.850;2023-10-13T00:52:56;9.1;;;5.3;;
51194;SDS011;37259;49.972;19.850;2023-10-13T00:53:56;9.1;;;5.3;;
51194;SDS011;37259;49.972;19.850;2023-10-13T00:54:56;9.1;;;5.3;;
51194;SDS011;37259;49.972;19.850;2023-10-13T00:55:56;9.1;;;5.3;;
51194;SDS011;37259;49.972;19.850;2023-10-13T00:56:56;9.1;;;5.3;;
51194;SDS011;37259;49.972;19.850;2023-10-13T00:57:56;9.1;;;5.3;;
51194;SDS011;37259;49.972;19.850;2023-10-13T00:58:56;9.1;;;5.3;;
51194;SDS011;37259;49.972;19.850;2023-10-13T00:59:56;9.1;;;5.3;;
51194;SDS011;37259;49.972;19.850;2023-10-13T01:00:56;9.1;;;5.3;;
51194;SDS011;37259;49.972;19.850;2023-10-13T01:01:56;9.1;;;5.3;;
51194;SDS011;37259;49.972;19.850;2023-10-13T01:02:56;9.1;;;5.3;;
51194;SDS011;37259;49.972;19.850;2023-10-13T01:03:56;9.1;;;5.3;;
51194;SDS011;37259;49.972;19.850;2023-10-13T01:04:56;9.1;;;5.3;;
51194;SDS011;37259;49.972;19.850;2023-10-13T01:05:56;9.1;;;5.3;;
51194;SDS011;37259;49.972;19.850;2023-10-13T01:06:56;9.1;;;5.3;;
51194;SDS011;37259;49.972;19.850;2023-10-13T01:07:56;9.1;;;5.3;;
51194;SDS011;37259;49.972;19.850;2023-10-13T01:08:57;9.1;;;5.3;;
51194;SDS011;37259;49.972;19.850;2023-10-13T01:09:56;9.1;;;5.3;;
51194;SDS011;37259;49.972;19.850;2023-10-13T01:10:56;10.3;;;5.5;;
51194;SDS011;37259;49.972;19.850;2023-10-13T01:11:56;10.3;;;5.5;;
51194;SDS011;37259;49.972;19.850;2023-10-13T01:12:56;10.3;;;5.5;;
51194;SDS011;37259;49.972;19.850;2023-10-13T01:13:56;10.3;;;5.5;;
51194;SDS011;37259;49.972;19.850;2023-10-13T01:14:56;10.3;;;5.5;;
51194;SDS011;37259;49.972;19.850;2023-10-13T01:15:56;10.3;;;5.5;;
51194;SDS011;37259;49.972;19.850;2023-10-13T01:16:56;10.3;;;5.5;;
51194;SDS011;37259;49.972;19.850;2023-10-13T01:18:05;10.3;;;5.5;;
51194;SDS011;37259;49.972;19.850;2023-10-13T01:18:56;10.3;;;5.5;;
51194;SDS011;37259;49.972;19.850;2023-10-13T01:19:56;10.3;;;5.5;;
51194;SDS011;37259;49.972;19.850;2023-10-13T01:20:56;10.3;;;5.5;;
51194;SDS011;37259;49.972;19.850;2023-10-13T01:21:56;10.3;;;5.5;;
51194;SDS011;37259;49.972;19.850;2023-10-13T01:22:56;10.3;;;5.5;;
51194;SDS011;37259;49.972;19.850;2023-10-13T01:23:56;10.3;;;5.5;;
51194;SDS011;37259;49.972;19.850;2023-10-13T01:24:56;10.3;;;5.5;;
51194;SDS011;37259;49.972;19.850;2023-10-13T01:25:56;10.3;;;5.5;;
51194;SDS011;37259;49.972;19.850;2023-10-13T01:26:56;10.3;;;5.5;;
51194;SDS011;37259;49.972;19.850;2023-10-13T01:27:56;10.3;;;5.5;;
51194;SDS011;37259;49.972;19.850;2023-10-13T01:28:57;10.3;;;5.5;;
51194;SDS011;37259;49.972;19.850;2023-10-13T01:29:56;10.3;;;5.5;;
51194;SDS011;37259;49.972;19.850;2023-10-13T01:30:56;10.3;;;5.5;;
51194;SDS011;37259;49.972;19.850;2023-10-13T01:31:56;10.3;;;5.5;;
51194;SDS011;37259;49.972;19.850;2023-10-13T01:32:56;10.3;;;5.5;;
51194;SDS011;37259;49.972;19.850;2023-10-13T01:33:56;10.3;;;5.5;;
51194;SDS011;37259;49.972;19.850;2023-10-13T01:34:56;10.3;;;5.5;;
51194;SDS011;37259;49.972;19.850;2023-10-13T01:35:56;10.3;;;5.5;;
51194;SDS011;37259;49.972;19.850;2023-10-13T01:36:56;10.3;;;5.5;;
51194;SDS011;37259;49.972;19.850;2023-10-13T01:37:56;10.3;;;5.5;;
51194;SDS011;37259;49.972;19.850;2023-10-13T01:38:56;10.3;;;5.5;;
51194;SDS011;37259;49.972;19.850;2023-10-13T01:39:56;10.3;;;5.5;;
51194;SDS011;37259;49.972;19.850;2023-10-13T01:40:56;11.7;;;5;;
51194;SDS011;37259;49.972;19.850;2023-10-13T01:41:56;11.7;;;5;;
51194;SDS011;37259;49.972;19.850;2023-10-13T01:42:56;11.7;;;5;;
51194;SDS011;37259;49.972;19.850;2023-10-13T01:43:56;11.7;;;5;;
51194;SDS011;37259;49.972;19.850;2023-10-13T01:44:56;11.7;;;5;;
51194;SDS011;37259;49.972;19.850;2023-10-13T01:45:56;11.7;;;5;;
51194;SDS011;37259;49.972;19.850;2023-10-13T01:46:56;11.7;;;5;;
51194;SDS011;37259;49.972;19.850;2023-10-13T01:47:56;11.7;;;5;;
51194;SDS011;37259;49.972;19.850;2023-10-13T01:48:56;11.7;;;5;;
51194;SDS011;37259;49.972;19.850;2023-10-13T01:49:56;11.7;;;5;;
51194;SDS011;37259;49.972;19.850;2023-10-13T01:50:56;11.7;;;5;;
51194;SDS011;37259;49.972;19.850;2023-10-13T01:51:56;11.7;;;5;;
51194;SDS011;37259;49.972;19.850;2023-10-13T01:52:56;11.7;;;5;;
51194;SDS011;37259;49.972;19.850;2023-10-13T01:53:56;11.7;;;5;;
51194;SDS011;37259;49.972;19.850;2023-10-13T01:54:56;11.7;;;5;;
51194;SDS011;37259;49.972;19.850;2023-10-13T01:55:56;11.7;;;5;;
51194;SDS011;37259;49.972;19.850;2023-10-13T01:56:56;11.7;;;5;;
51194;SDS011;37259;49.972;19.850;2023-10-13T01:57:56;11.7;;;5;;
51194;SDS011;37259;49.972;19.850;2023-10-13T01:58:56;11.7;;;5;;
51194;SDS011;37259;49.972;19.850;2023-10-13T01:59:56;11.7;;;5;;
51194;SDS011;37259;49.972;19.850;2023-10-13T02:00:56;11.7;;;5;;
51194;SDS011;37259;49.972;19.850;2023-10-13T02:01:56;11.7;;;5;;
51194;SDS011;37259;49.972;19.850;2023-10-13T02:02:56;11.7;;;5;;
51194;SDS011;37259;49.972;19.850;2023-10-13T02:03:56;11.7;;;5;;
51194;SDS011;37259;49.972;19.850;2023-10-13T02:04:56;11.7;;;5;;
51194;SDS011;37259;49.972;19.850;2023-10-13T02:05:56;11.7;;;5;;
51194;SDS011;37259;49.972;19.850;2023-10-13T02:06:56;11.7;;;5;;
51194;SDS011;37259;49.972;19.850;2023-10-13T02:07:56;11.7;;;5;;
51194;SDS011;37259;49.972;19.850;2023-10-13T02:08:56;11.7;;;5;;
51194;SDS011;37259;49.972;19.850;2023-10-13T02:09:56;11.7;;;5;;
51194;SDS011;37259;49.972;19.850;2023-10-13T02:10:57;8.5;;;5;;
51194;SDS011;37259;49.972;19.850;2023-10-13T02:11:56;8.5;;;5;;
51194;SDS011;37259;49.972;19.850;2023-10-13T02:12:56;8.5;;;5;;
51194;SDS011;37259;49.972;19.850;2023-10-13T02:13:56;8.5;;;5;;
51194;SDS011;37259;49.972;19.850;2023-10-13T02:14:56;8.5;;;5;;
51194;SDS011;37259;49.972;19.850;2023-10-13T02:15:57;8.5;;;5;;
51194;SDS011;37259;49.972;19.850;2023-10-13T02:16:56;8.5;;;5;;
51194;SDS011;37259;49.972;19.850;2023-10-13T02:17:56;8.5;;;5;;
51194;SDS011;37259;49.972;19.850;2023-10-13T02:18:56;8.5;;;5;;
51194;SDS011;37259;49.972;19.850;2023-10-13T02:19:56;8.5;;;5;;
51194;SDS011;37259;49.972;19.850;2023-10-13T02:20:56;8.5;;;5;;
51194;SDS011;37259;49.972;19.850;2023-10-13T02:21:56;8.5;;;5;;
51194;SDS011;37259;49.972;19.850;2023-10-13T02:22:56;8.5;;;5;;
51194;SDS011;37259;49.972;19.850;2023-10-13T02:23:56;8.5;;;5;;
51194;SDS011;37259;49.972;19.850;2023-10-13T02:24:56;8.5;;;5;;
51194;SDS011;37259;49.972;19.850;2023-10-13T02:25:56;8.5;;;5;;
51194;SDS011;37259;49.972;19.850;2023-10-13T02:26:56;8.5;;;5;;
51194;SDS011;37259;49.972;19.850;2023-10-13T02:27:56;8.5;;;5;;
51194;SDS011;37259;49.972;19.850;2023-10-13T02:28:57;8.5;;;5;;
51194;SDS011;37259;49.972;19.850;2023-10-13T02:29:56;8.5;;;5;;
51194;SDS011;37259;49.972;19.850;2023-10-13T02:30:56;8.5;;;5;;
51194;SDS011;37259;49.972;19.850;2023-10-13T02:31:56;8.5;;;5;;
51194;SDS011;37259;49.972;19.850;2023-10-13T02:32:56;8.5;;;5;;
51194;SDS011;37259;49.972;19.850;2023-10-13T02:33:56;8.5;;;5;;
51194;SDS011;37259;49.972;19.850;2023-10-13T02:34:56;8.5;;;5;;
51194;SDS011;37259;49.972;19.850;2023-10-13T02:35:56;8.5;;;5;;
51194;SDS011;37259;49.972;19.850;2023-10-13T02:36:56;8.5;;;5;;
51194;SDS011;37259;49.972;19.850;2023-10-13T02:37:56;8.5;;;5;;
51194;SDS011;37259;49.972;19.850;2023-10-13T02:38:56;8.5;;;5;;
51194;SDS011;37259;49.972;19.850;2023-10-13T02:39:56;8.5;;;5;;
51194;SDS011;37259;49.972;19.850;2023-10-13T02:40:56;9;;;5;;
51194;SDS011;37259;49.972;19.850;2023-10-13T02:41:56;9;;;5;;
51194;SDS011;37259;49.972;19.850;2023-10-13T02:42:56;9;;;5;;
51194;SDS011;37259;49.972;19.850;2023-10-13T02:43:56;9;;;5;;
51194;SDS011;37259;49.972;19.850;2023-10-13T02:44:56;9;;;5;;
51194;SDS011;37259;49.972;19.850;2023-10-13T02:45:56;9;;;5;;
51194;SDS011;37259;49.972;19.850;2023-10-13T02:46:56;9;;;5;;
51194;SDS011;37259;49.972;19.850;2023-10-13T02:47:56;9;;;5;;
51194;SDS011;37259;49.972;19.850;2023-10-13T02:48:56;9;;;5;;
51194;SDS011;37259;49.972;19.850;2023-10-13T02:49:56;9;;;5;;
51194;SDS011;37259;49.972;19.850;2023-10-13T02:50:57;9;;;5;;
51194;SDS011;37259;49.972;19.850;2023-10-13T02:51:56;9;;;5;;
51194;SDS011;37259;49.972;19.850;2023-10-13T02:52:56;9;;;5;;
51194;SDS011;37259;49.972;19.850;2023-10-13T02:53:56;9;;;5;;
51194;SDS011;37259;49.972;19.850;2023-10-13T02:54:56;9;;;5;;
51194;SDS011;37259;49.972;19.850;2023-10-13T02:55:57;9;;;5;;
51194;SDS011;37259;49.972;19.850;2023-10-13T02:56:56;9;;;5;;
51194;SDS011;37259;49.972;19.850;2023-10-13T02:57:56;9;;;5;;
51194;SDS011;37259;49.972;19.850;2023-10-13T02:58:56;9;;;5;;
51194;SDS011;37259;49.972;19.850;2023-10-13T02:59:56;9;;;5;;
51194;SDS011;37259;49.972;19.850;2023-10-13T03:00:56;9;;;5;;
51194;SDS011;37259;49.972;19.850;2023-10-13T03:01:56;9;;;5;;
51194;SDS011;37259;49.972;19.850;2023-10-13T03:02:56;9;;;5;;
51194;SDS011;37259;49.972;19.850;2023-10-13T03:03:56;9;;;5;;
51194;SDS011;37259;49.972;19.850;2023-10-13T03:04:56;9;;;5;;
51194;SDS011;37259;49.972;19.850;2023-10-13T03:05:58;9;;;5;;
51194;SDS011;37259;49.972;19.850;2023-10-13T03:06:56;9;;;5;;
51194;SDS011;37259;49.972;19.850;2023-10-13T03:07:56;9;;;5;;
51194;SDS011;37259;49.972;19.850;2023-10-13T03:08:56;9;;;5;;
51194;SDS011;37259;49.972;19.850;2023-10-13T03:09:56;9;;;5;;
51194;SDS011;37259;49.972;19.850;2023-10-13T03:10:56;6.3;;;3.2;;
51194;SDS011;37259;49.972;19.850;2023-10-13T03:11:56;6.3;;;3.2;;
51194;SDS011;37259;49.972;19.850;2023-10-13T03:12:56;6.3;;;3.2;;
51194;SDS011;37259;49.972;19.850;2023-10-13T03:13:56;6.3;;;3.2;;
51194;SDS011;37259;49.972;19.850;2023-10-13T03:14:56;6.3;;;3.2;;
51194;SDS011;37259;49.972;19.850;2023-10-13T03:15:56;6.3;;;3.2;;
51194;SDS011;37259;49.972;19.850;2023-10-13T03:16:57;6.3;;;3.2;;
51194;SDS011;37259;49.972;19.850;2023-10-13T03:17:56;6.3;;;3.2;;
51194;SDS011;37259;49.972;19.850;2023-10-13T03:18:56;6.3;;;3.2;;
51194;SDS011;37259;49.972;19.850;2023-10-13T03:19:56;6.3;;;3.2;;
51194;SDS011;37259;49.972;19.850;2023-10-13T03:20:56;6.3;;;3.2;;
51194;SDS011;37259;49.972;19.850;2023-10-13T03:21:56;6.3;;;3.2;;
51194;SDS011;37259;49.972;19.850;2023-10-13T03:22:56;6.3;;;3.2;;
51194;SDS011;37259;49.972;19.850;2023-10-13T03:23:57;6.3;;;3.2;;
51194;SDS011;37259;49.972;19.850;2023-10-13T03:24:56;6.3;;;3.2;;
51194;SDS011;37259;49.972;19.850;2023-10-13T03:25:56;6.3;;;3.2;;
51194;SDS011;37259;49.972;19.850;2023-10-13T03:26:56;6.3;;;3.2;;
51194;SDS011;37259;49.972;19.850;2023-10-13T03:27:56;6.3;;;3.2;;
51194;SDS011;37259;49.972;19.850;2023-10-13T03:28:56;6.3;;;3.2;;
51194;SDS011;37259;49.972;19.850;2023-10-13T03:29:56;6.3;;;3.2;;
51194;SDS011;37259;49.972;19.850;2023-10-13T03:30:56;6.3;;;3.2;;
51194;SDS011;37259;49.972;19.850;2023-10-13T03:31:56;6.3;;;3.2;;
51194;SDS011;37259;49.972;19.850;2023-10-13T03:32:56;6.3;;;3.2;;
51194;SDS011;37259;49.972;19.850;2023-10-13T03:33:56;6.3;;;3.2;;
51194;SDS011;37259;49.972;19.850;2023-10-13T03:34:56;6.3;;;3.2;;
51194;SDS011;37259;49.972;19.850;2023-10-13T03:35:56;6.3;;;3.2;;
51194;SDS011;37259;49.972;19.850;2023-10-13T03:36:56;6.3;;;3.2;;
51194;SDS011;37259;49.972;19.850;2023-10-13T03:37:56;6.3;;;3.2;;
51194;SDS011;37259;49.972;19.850;2023-10-13T03:38:56;6.3;;;3.2;;
51194;SDS011;37259;49.972;19.850;2023-10-13T03:39:56;6.3;;;3.2;;
51194;SDS011;37259;49.972;19.850;2023-10-13T03:40:56;5.9;;;3.1;;
51194;SDS011;37259;49.972;19.850;2023-10-13T03:41:57;5.9;;;3.1;;
51194;SDS011;37259;49.972;19.850;2023-10-13T03:42:57;5.9;;;3.1;;
51194;SDS011;37259;49.972;19.850;2023-10-13T03:43:56;5.9;;;3.1;;
51194;SDS011;37259;49.972;19.850;2023-10-13T03:44:56;5.9;;;3.1;;
51194;SDS011;37259;49.972;19.850;2023-10-13T03:45:56;5.9;;;3.1;;
51194;SDS011;37259;49.972;19.850;2023-10-13T03:46:57;5.9;;;3.1;;
51194;SDS011;37259;49.972;19.850;2023-10-13T03:47:56;5.9;;;3.1;;
51194;SDS011;37259;49.972;19.850;2023-10-13T03:48:56;5.9;;;3.1;;
51194;SDS011;37259;49.972;19.850;2023-10-13T03:49:56;5.9;;;3.1;;
51194;SDS011;37259;49.972;19.850;2023-10-13T03:50:57;5.9;;;3.1;;
51194;SDS011;37259;49.972;19.850;2023-10-13T03:51:56;5.9;;;3.1;;
51194;SDS011;37259;49.972;19.850;2023-10-13T03:52:56;5.9;;;3.1;;
51194;SDS011;37259;49.972;19.850;2023-10-13T03:53:56;5.9;;;3.1;;
51194;SDS011;37259;49.972;19.850;2023-10-13T03:54:56;5.9;;;3.1;;
51194;SDS011;37259;49.972;19.850;2023-10-13T03:55:56;5.9;;;3.1;;
51194;SDS011;37259;49.972;19.850;2023-10-13T03:56:56;5.9;;;3.1;;
51194;SDS011;37259;49.972;19.850;2023-10-13T03:57:56;5.9;;;3.1;;
51194;SDS011;37259;49.972;19.850;2023-10-13T03:58:57;5.9;;;3.1;;
51194;SDS011;37259;49.972;19.850;2023-10-13T03:59:56;5.9;;;3.1;;
51194;SDS011;37259;49.972;19.850;2023-10-13T04:00:56;5.9;;;3.1;;
51194;SDS011;37259;49.972;19.850;2023-10-13T04:01:56;5.9;;;3.1;;
51194;SDS011;37259;49.972;19.850;2023-10-13T04:02:56;5.9;;;3.1;;
51194;SDS011;37259;49.972;19.850;2023-10-13T04:03:57;5.9;;;3.1;;
51194;SDS011;37259;49.972;19.850;2023-10-13T04:04:56;5.9;;;3.1;;
51194;SDS011;37259;49.972;19.850;2023-10-13T04:51:56;10.5;;;4;;
51194;SDS011;37259;49.972;19.850;2023-10-13T04:52:56;10.5;;;4;;
51194;SDS011;37259;49.972;19.850;2023-10-13T04:53:56;10.5;;;4;;
51194;SDS011;37259;49.972;19.850;2023-10-13T04:54:56;10.5;;;4;;
51194;SDS011;37259;49.972;19.850;2023-10-13T04:55:57;10.5;;;4;;
51194;SDS011;37259;49.972;19.850;2023-10-13T04:56:56;10.5;;;4;;
51194;SDS011;37259;49.972;19.850;2023-10-13T04:57:56;10.5;;;4;;
51194;SDS011;37259;49.972;19.850;2023-10-13T05:02:56;10.5;;;4;;
51194;SDS011;37259;49.972;19.850;2023-10-13T05:03:56;10.5;;;4;;
51194;SDS011;37259;49.972;19.850;2023-10-13T05:04:56;10.5;;;4;;
51194;SDS011;37259;49.972;19.850;2023-10-13T05:05:56;10.5;;;4;;
51194;SDS011;37259;49.972;19.850;2023-10-13T05:06:56;10.5;;;4;;
51194;SDS011;37259;49.972;19.850;2023-10-13T05:07:56;10.5;;;4;;
51194;SDS011;37259;49.972;19.850;2023-10-13T05:08:56;10.5;;;4;;
51194;SDS011;37259;49.972;19.850;2023-10-13T05:09:56;10.5;;;4;;
51194;SDS011;37259;49.972;19.850;2023-10-13T05:10:56;7.6;;;4.2;;
51194;SDS011;37259;49.972;19.850;2023-10-13T05:11:56;7.6;;;4.2;;
51194;SDS011;37259;49.972;19.850;2023-10-13T05:12:56;7.6;;;4.2;;
51194;SDS011;37259;49.972;19.850;2023-10-13T05:13:56;7.6;;;4.2;;
51194;SDS011;37259;49.972;19.850;2023-10-13T05:14:56;7.6;;;4.2;;
51194;SDS011;37259;49.972;19.850;2023-10-13T05:15:56;7.6;;;4.2;;
51194;SDS011;37259;49.972;19.850;2023-10-13T05:16:56;7.6;;;4.2;;
51194;SDS011;37259;49.972;19.850;2023-10-13T05:17:56;7.6;;;4.2;;
51194;SDS011;37259;49.972;19.850;2023-10-13T05:18:56;7.6;;;4.2;;
51194;SDS011;37259;49.972;19.850;2023-10-13T05:19:57;7.6;;;4.2;;
51194;SDS011;37259;49.972;19.850;2023-10-13T05:20:56;7.6;;;4.2;;
51194;SDS011;37259;49.972;19.850;2023-10-13T05:21:56;7.6;;;4.2;;
51194;SDS011;37259;49.972;19.850;2023-10-13T05:22:56;7.6;;;4.2;;
51194;SDS011;37259;49.972;19.850;2023-10-13T05:23:56;7.6;;;4.2;;
51194;SDS011;37259;49.972;19.850;2023-10-13T05:24:56;7.6;;;4.2;;
51194;SDS011;37259;49.972;19.850;2023-10-13T05:25:59;7.6;;;4.2;;
51194;SDS011;37259;49.972;19.850;2023-10-13T05:26:56;7.6;;;4.2;;
51194;SDS011;37259;49.972;19.850;2023-10-13T05:27:56;7.6;;;4.2;;
51194;SDS011;37259;49.972;19.850;2023-10-13T05:28:56;7.6;;;4.2;;
51194;SDS011;37259;49.972;19.850;2023-10-13T05:29:56;7.6;;;4.2;;
51194;SDS011;37259;49.972;19.850;2023-10-13T05:30:58;7.6;;;4.2;;
51194;SDS011;37259;49.972;19.850;2023-10-13T05:31:56;7.6;;;4.2;;
51194;SDS011;37259;49.972;19.850;2023-10-13T05:32:56;7.6;;;4.2;;
51194;SDS011;37259;49.972;19.850;2023-10-13T05:33:56;7.6;;;4.2;;
51194;SDS011;37259;49.972;19.850;2023-10-13T05:34:56;7.6;;;4.2;;
51194;SDS011;37259;49.972;19.850;2023-10-13T05:35:56;7.6;;;4.2;;
51194;SDS011;37259;49.972;19.850;2023-10-13T05:36:56;7.6;;;4.2;;
51194;SDS011;37259;49.972;19.850;2023-10-13T05:37:56;7.6;;;4.2;;
51194;SDS011;37259;49.972;19.850;2023-10-13T05:38:56;7.6;;;4.2;;
51194;SDS011;37259;49.972;19.850;2023-10-13T05:39:56;7.6;;;4.2;;
51194;SDS011;37259;49.972;19.850;2023-10-13T05:40:57;9.9;;;5.5;;
51194;SDS011;37259;49.972;19.850;2023-10-13T05:41:56;9.9;;;5.5;;
51194;SDS011;37259;49.972;19.850;2023-10-13T05:42:56;9.9;;;5.5;;
51194;SDS011;37259;49.972;19.850;2023-10-13T05:43:56;9.9;;;5.5;;
51194;SDS011;37259;49.972;19.850;2023-10-13T05:44:56;9.9;;;5.5;;
51194;SDS011;37259;49.972;19.850;2023-10-13T05:46:00;9.9;;;5.5;;
51194;SDS011;37259;49.972;19.850;2023-10-13T05:46:56;9.9;;;5.5;;
51194;SDS011;37259;49.972;19.850;2023-10-13T05:47:56;9.9;;;5.5;;
51194;SDS011;37259;49.972;19.850;2023-10-13T05:48:56;9.9;;;5.5;;
51194;SDS011;37259;49.972;19.850;2023-10-13T05:49:56;9.9;;;5.5;;
51194;SDS011;37259;49.972;19.850;2023-10-13T05:50:59;9.9;;;5.5;;
51194;SDS011;37259;49.972;19.850;2023-10-13T05:51:56;9.9;;;5.5;;
51194;SDS011;37259;49.972;19.850;2023-10-13T05:52:56;9.9;;;5.5;;
51194;SDS011;37259;49.972;19.850;2023-10-13T05:53:56;9.9;;;5.5;;
51194;SDS011;37259;49.972;19.850;2023-10-13T05:54:56;9.9;;;5.5;;
51194;SDS011;37259;49.972;19.850;2023-10-13T05:55:59;9.9;;;5.5;;
51194;SDS011;37259;49.972;19.850;2023-10-13T05:56:56;9.9;;;5.5;;
51194;SDS011;37259;49.972;19.850;2023-10-13T05:57:56;9.9;;;5.5;;
51194;SDS011;37259;49.972;19.850;2023-10-13T05:58:56;9.9;;;5.5;;
51194;SDS011;37259;49.972;19.850;2023-10-13T05:59:56;9.9;;;5.5;;
51194;SDS011;37259;49.972;19.850;2023-10-13T06:00:56;9.9;;;5.5;;
51194;SDS011;37259;49.972;19.850;2023-10-13T06:01:56;9.9;;;5.5;;
51194;SDS011;37259;49.972;19.850;2023-10-13T06:02:56;9.9;;;5.5;;
51194;SDS011;37259;49.972;19.850;2023-10-13T06:03:56;9.9;;;5.5;;
51194;SDS011;37259;49.972;19.850;2023-10-13T06:04:56;9.9;;;5.5;;
51194;SDS011;37259;49.972;19.850;2023-10-13T06:05:56;9.9;;;5.5;;
51194;SDS011;37259;49.972;19.850;2023-10-13T06:06:56;9.9;;;5.5;;
51194;SDS011;37259;49.972;19.850;2023-10-13T06:07:56;9.9;;;5.5;;
51194;SDS011;37259;49.972;19.850;2023-10-13T06:08:56;9.9;;;5.5;;
51194;SDS011;37259;49.972;19.850;2023-10-13T06:09:56;9.9;;;5.5;;
51194;SDS011;37259;49.972;19.850;2023-10-13T06:11:00;10.7;;;6;;
51194;SDS011;37259;49.972;19.850;2023-10-13T06:11:56;10.7;;;6;;
51194;SDS011;37259;49.972;19.850;2023-10-13T06:12:56;10.7;;;6;;
51194;SDS011;37259;49.972;19.850;2023-10-13T06:13:56;10.7;;;6;;
51194;SDS011;37259;49.972;19.850;2023-10-13T06:14:56;10.7;;;6;;
51194;SDS011;37259;49.972;19.850;2023-10-13T06:15:56;10.7;;;6;;
51194;SDS011;37259;49.972;19.850;2023-10-13T06:16:56;10.7;;;6;;
51194;SDS011;37259;49.972;19.850;2023-10-13T06:17:56;10.7;;;6;;
51194;SDS011;37259;49.972;19.850;2023-10-13T06:18:56;10.7;;;6;;
51194;SDS011;37259;49.972;19.850;2023-10-13T06:19:56;10.7;;;6;;
51194;SDS011;37259;49.972;19.850;2023-10-13T06:20:56;10.7;;;6;;
51194;SDS011;37259;49.972;19.850;2023-10-13T06:21:56;10.7;;;6;;
51194;SDS011;37259;49.972;19.850;2023-10-13T06:22:56;10.7;;;6;;
51194;SDS011;37259;49.972;19.850;2023-10-13T06:23:56;10.7;;;6;;
51194;SDS011;37259;49.972;19.850;2023-10-13T06:24:56;10.7;;;6;;
51194;SDS011;37259;49.972;19.850;2023-10-13T06:25:56;10.7;;;6;;
51194;SDS011;37259;49.972;19.850;2023-10-13T06:26:56;10.7;;;6;;
51194;SDS011;37259;49.972;19.850;2023-10-13T06:27:56;10.7;;;6;;
51194;SDS011;37259;49.972;19.850;2023-10-13T06:28:56;10.7;;;6;;
51194;SDS011;37259;49.972;19.850;2023-10-13T06:29:56;10.7;;;6;;
51194;SDS011;37259;49.972;19.850;2023-10-13T06:30:58;10.7;;;6;;
51194;SDS011;37259;49.972;19.850;2023-10-13T06:31:56;10.7;;;6;;
51194;SDS011;37259;49.972;19.850;2023-10-13T06:32:56;10.7;;;6;;
51194;SDS011;37259;49.972;19.850;2023-10-13T06:33:56;10.7;;;6;;
51194;SDS011;37259;49.972;19.850;2023-10-13T06:34:56;10.7;;;6;;
51194;SDS011;37259;49.972;19.850;2023-10-13T06:35:56;10.7;;;6;;
51194;SDS011;37259;49.972;19.850;2023-10-13T06:36:56;10.7;;;6;;
51194;SDS011;37259;49.972;19.850;2023-10-13T06:37:56;10.7;;;6;;
51194;SDS011;37259;49.972;19.850;2023-10-13T06:38:56;10.7;;;6;;
51194;SDS011;37259;49.972;19.850;2023-10-13T06:39:57;10.7;;;6;;
51194;SDS011;37259;49.972;19.850;2023-10-13T06:40:56;10.5;;;5.9;;
51194;SDS011;37259;49.972;19.850;2023-10-13T06:41:56;10.5;;;5.9;;
51194;SDS011;37259;49.972;19.850;2023-10-13T06:42:56;10.5;;;5.9;;
51194;SDS011;37259;49.972;19.850;2023-10-13T06:43:56;10.5;;;5.9;;
51194;SDS011;37259;49.972;19.850;2023-10-13T06:44:57;10.5;;;5.9;;
51194;SDS011;37259;49.972;19.850;2023-10-13T06:45:56;10.5;;;5.9;;
51194;SDS011;37259;49.972;19.850;2023-10-13T06:46:56;10.5;;;5.9;;
51194;SDS011;37259;49.972;19.850;2023-10-13T06:47:56;10.5;;;5.9;;
51194;SDS011;37259;49.972;19.850;2023-10-13T06:48:56;10.5;;;5.9;;
51194;SDS011;37259;49.972;19.850;2023-10-13T06:49:56;10.5;;;5.9;;
51194;SDS011;37259;49.972;19.850;2023-10-13T06:50:56;10.5;;;5.9;;
51194;SDS011;37259;49.972;19.850;2023-10-13T06:51:56;10.5;;;5.9;;
51194;SDS011;37259;49.972;19.850;2023-10-13T06:52:56;10.5;;;5.9;;
51194;SDS011;37259;49.972;19.850;2023-10-13T06:53:56;10.5;;;5.9;;
51194;SDS011;37259;49.972;19.850;2023-10-13T06:54:56;10.5;;;5.9;;
51194;SDS011;37259;49.972;19.850;2023-10-13T06:55:56;10.5;;;5.9;;
51194;SDS011;37259;49.972;19.850;2023-10-13T06:56:56;10.5;;;5.9;;
51194;SDS011;37259;49.972;19.850;2023-10-13T06:57:56;10.5;;;5.9;;
51194;SDS011;37259;49.972;19.850;2023-10-13T06:58:56;10.5;;;5.9;;
51194;SDS011;37259;49.972;19.850;2023-10-13T06:59:56;10.5;;;5.9;;
51194;SDS011;37259;49.972;19.850;2023-10-13T07:00:57;10.5;;;5.9;;